Stratton, NE (69043)

3:15 PM CST on December 26, 2014 (GMT -0600)
Kastens Grain | Change Station
CLOSE
Current Station
Personal Weather Station
Location: Atwood, KS
Elevation: 3077 ft
Nearby Weather Stations
Active Advisory: Winter Weather Advisory

Elev 3077 ft 39.87 °N, 101.05 °W | Updated 7 minutes ago

Snow
Snow
23.7 °F
Feels Like 16 °F
N
6.0
Wind Variable Wind from North
Gusts 12.0 mph

Today
High -- | Low -- °F
--% Chance of Precip.
Yesterday
High -- | Low -- °F
Precip. -- in
8:05 AM 5:25 PM
Waxing Crescent, 29% visible
Pressure 29.99 in
Visibility 1.0 miles
Clouds Scattered Clouds 1200 ft
Overcast 1700 ft
Windchill 16 °F
Dew Point 22 °F
Humidity 91%
Rainfall 0.00 in
Snow Depth Not available.
UV 0.0 out of 12
Pollen .10 out of 12
Air Quality Not available.
Flu Activity Not available.
SPECI KIML 262105Z AUTO 01015KT 1SM -SN SCT012 OVC017 M06/M09 A2999 RMK AO2 P0000 T10561089

More Conditions Fewer Conditions

Pressure 29.99 in
Visibility 1.0 miles
Clouds Scattered Clouds 1200 ft
Overcast 1700 ft
Windchill 16 °F
Dew Point 22 °F
Humidity 91%
Rainfall 0.00 in
Snow Depth Not available.
UV 0.0 out of 12
Pollen .10 out of 12
Air Quality Not available.
Flu Activity Not available.
SPECI KIML 262105Z AUTO 01015KT 1SM -SN SCT012 OVC017 M06/M09 A2999 RMK AO2 P0000 T10561089

More Conditions Fewer Conditions

10-Day Weather Forecast

Almanac

Astronomy

Dec. 26, 2014 Rise Set
Actual Time
Civil Twilight
Nautical Twilight
Astronomical Twilight
Moon
Length of Visible Light
Length of Day
Tomorrow will be .
, % of the Moon is Illuminated

Today's Extremes

State Highs State Lows

Community

WunderPhotos

Upload Photos

1,780,716 photos uploaded!

WunderBlogs® & News

Nearby

Air Quality

  Air Quality AQ Index Pollutant
Not available.

Snow Depth

Station Depth Elevation

Earthquake Activity

City Distance Mag. Time & Date
Minimum magnitude displayed is 2.5.

Coastal Water Temperatures

Place Temperature

Nearby Weather Stations